createdAt,value
2019-01-29T00:01:53.145Z,1.34
2019-01-29T00:04:23.470Z,1.27
2019-01-29T00:06:53.268Z,1.36
2019-01-29T00:09:23.786Z,1.40
2019-01-29T00:11:53.671Z,1.28
2019-01-29T00:14:23.449Z,1.27
2019-01-29T00:16:53.382Z,1.35
2019-01-29T00:19:23.206Z,1.24
2019-01-29T00:21:53.045Z,1.30
2019-01-29T00:24:22.860Z,1.23
2019-01-29T00:26:52.561Z,1.17
2019-01-29T00:29:22.367Z,1.05
2019-01-29T00:31:52.276Z,0.95
2019-01-29T00:34:22.092Z,0.91
2019-01-29T00:36:51.871Z,0.85
2019-01-29T00:39:21.752Z,0.78
2019-01-29T00:41:51.547Z,0.78
2019-01-29T00:44:21.405Z,0.59
2019-01-29T00:46:51.142Z,0.61
2019-01-29T00:49:22.731Z,0.61
2019-01-29T00:51:52.602Z,0.65
2019-01-29T00:54:22.393Z,0.62
2019-01-29T00:56:52.191Z,0.60
2019-01-29T00:59:22.000Z,0.60
2019-01-29T01:01:51.767Z,0.52
2019-01-29T01:04:21.479Z,0.54
2019-01-29T01:06:51.370Z,0.55
2019-01-29T01:09:21.551Z,0.46
2019-01-29T01:11:51.273Z,0.51
2019-01-29T01:14:21.105Z,0.55
2019-01-29T01:16:50.897Z,0.52
2019-01-29T01:19:20.661Z,0.51
2019-01-29T01:21:50.508Z,0.66
2019-01-29T01:24:20.322Z,0.66
2019-01-29T01:26:50.183Z,0.39
2019-01-29T01:29:20.290Z,0.44
2019-01-29T01:31:50.238Z,0.44
2019-01-29T01:34:19.970Z,0.42
2019-01-29T01:36:50.768Z,0.48
2019-01-29T01:39:20.583Z,0.52
2019-01-29T01:41:50.327Z,0.58
2019-01-29T01:44:20.406Z,0.62
2019-01-29T01:46:50.399Z,0.63
2019-01-29T01:49:20.356Z,0.66
2019-01-29T01:51:50.090Z,0.69
2019-01-29T01:54:20.072Z,0.71
2019-01-29T01:56:50.383Z,0.69
2019-01-29T01:59:20.248Z,0.69
2019-01-29T02:01:50.469Z,0.67
2019-01-29T02:04:20.246Z,0.66
2019-01-29T02:06:50.130Z,0.63
2019-01-29T02:09:19.913Z,0.58
2019-01-29T02:11:49.700Z,0.58
2019-01-29T02:14:19.532Z,0.59
2019-01-29T02:16:49.349Z,0.58
2019-01-29T02:19:19.054Z,0.64
2019-01-29T02:21:48.903Z,0.60
2019-01-29T02:24:18.739Z,0.44
2019-01-29T02:26:48.579Z,0.31
2019-01-29T02:29:18.319Z,0.39
2019-01-29T02:31:48.042Z,0.39
2019-01-29T02:34:17.870Z,0.35
2019-01-29T02:36:47.731Z,0.44
2019-01-29T02:39:17.505Z,0.44
2019-01-29T02:41:47.369Z,0.46
2019-01-29T02:44:17.185Z,0.38
2019-01-29T02:46:47.091Z,0.38
2019-01-29T02:49:16.927Z,0.38
2019-01-29T02:51:46.722Z,0.47
2019-01-29T02:54:16.525Z,0.47
2019-01-29T02:56:46.318Z,0.52
2019-01-29T02:59:16.082Z,0.35
2019-01-29T03:01:45.924Z,0.26
2019-01-29T03:04:15.728Z,0.32
2019-01-29T03:06:45.518Z,0.32
2019-01-29T03:09:16.931Z,0.29
2019-01-29T03:11:46.735Z,0.29
2019-01-29T03:14:16.774Z,0.35
2019-01-29T03:16:46.570Z,0.35
2019-01-29T03:19:16.315Z,0.35
2019-01-29T03:21:46.129Z,0.30
2019-01-29T03:24:15.952Z,0.36
2019-01-29T03:26:45.729Z,0.39
2019-01-29T03:29:15.727Z,0.39
2019-01-29T03:31:45.710Z,0.44
2019-01-29T03:34:15.535Z,0.30
2019-01-29T03:36:45.707Z,0.30
2019-01-29T03:39:15.539Z,0.22
2019-01-29T03:41:45.382Z,0.22
2019-01-29T03:44:15.247Z,0.22
2019-01-29T03:46:45.062Z,0.24
2019-01-29T03:49:14.999Z,0.16
2019-01-29T03:51:44.988Z,0.09
2019-01-29T03:54:14.886Z,0.09
2019-01-29T03:56:44.725Z,0.13
2019-01-29T03:59:14.517Z,0.13
2019-01-29T04:01:44.373Z,0.13
2019-01-29T04:04:14.567Z,0.14
2019-01-29T04:06:44.383Z,-0.09
2019-01-29T04:09:14.364Z,-0.05
2019-01-29T04:11:44.457Z,-0.04
2019-01-29T04:14:14.313Z,-0.04
2019-01-29T04:16:44.664Z,0.05
2019-01-29T04:19:14.889Z,0.05
2019-01-29T04:21:44.794Z,0.01
2019-01-29T04:24:14.536Z,-0.13
2019-01-29T04:26:44.499Z,-0.17
2019-01-29T04:29:14.482Z,-0.15
2019-01-29T04:31:44.450Z,-0.22
2019-01-29T04:34:14.187Z,-0.22
2019-01-29T04:36:44.064Z,-0.18
2019-01-29T04:39:13.871Z,-0.09
2019-01-29T04:41:43.619Z,-0.09
2019-01-29T04:44:13.482Z,-0.09
2019-01-29T04:46:43.259Z,-0.15
2019-01-29T04:49:13.232Z,-0.18
2019-01-29T04:51:43.117Z,-0.18
2019-01-29T04:54:13.188Z,-0.17
2019-01-29T04:56:42.993Z,-0.15
2019-01-29T04:59:12.779Z,-0.05
2019-01-29T05:01:42.566Z,-0.03
2019-01-29T05:04:12.419Z,-0.05
2019-01-29T05:06:42.221Z,-0.05
2019-01-29T05:09:12.025Z,-0.08
2019-01-29T05:11:41.900Z,-0.08
2019-01-29T05:14:11.605Z,-0.16
2019-01-29T05:16:41.450Z,-0.18
2019-01-29T05:19:11.267Z,-0.19
2019-01-29T05:21:41.069Z,-0.31
2019-01-29T05:24:10.927Z,-0.34
2019-01-29T05:26:40.719Z,-0.43
2019-01-29T05:29:10.533Z,-0.44
2019-01-29T05:31:40.393Z,-0.44
2019-01-29T05:34:10.124Z,-0.39
2019-01-29T05:36:39.922Z,-0.39
2019-01-29T05:39:09.776Z,-0.40
2019-01-29T05:41:39.580Z,-0.40
2019-01-29T05:44:09.472Z,-0.45
2019-01-29T05:46:39.270Z,-0.46
2019-01-29T05:49:09.047Z,-0.46
2019-01-29T05:51:40.636Z,-0.47
2019-01-29T05:54:16.484Z,-0.48
2019-01-29T05:56:42.748Z,-0.51
2019-01-29T05:59:13.152Z,-0.51
2019-01-29T06:01:42.996Z,-0.59
2019-01-29T06:04:12.828Z,-0.59
2019-01-29T06:06:42.656Z,-0.63
2019-01-29T06:09:12.465Z,-0.66
2019-01-29T06:11:43.550Z,-0.62
2019-01-29T06:14:13.365Z,-0.62
2019-01-29T06:16:43.097Z,-0.63
2019-01-29T06:19:12.846Z,-0.66
2019-01-29T06:21:42.685Z,-0.66
2019-01-29T06:24:12.501Z,-0.61
2019-01-29T06:26:42.251Z,-0.59
2019-01-29T06:29:11.995Z,-0.55
2019-01-29T06:31:41.791Z,-0.50
2019-01-29T06:34:11.649Z,-0.52
2019-01-29T06:36:41.532Z,-0.58
2019-01-29T06:39:11.332Z,-0.53
2019-01-29T06:41:41.115Z,-0.52
2019-01-29T06:44:10.914Z,-0.58
2019-01-29T06:46:40.711Z,-0.57
2019-01-29T06:49:10.599Z,-0.60
2019-01-29T06:51:40.337Z,2.23
2019-01-29T06:54:10.149Z,3.10
2019-01-29T06:56:39.873Z,3.10
2019-01-29T06:59:09.621Z,3.39
2019-01-29T07:01:39.534Z,3.39
2019-01-29T07:04:09.369Z,3.37
2019-01-29T07:06:39.187Z,3.48
2019-01-29T07:09:09.430Z,3.57
2019-01-29T07:11:39.183Z,3.30
2019-01-29T07:14:09.091Z,2.64
2019-01-29T07:16:40.488Z,2.15
2019-01-29T07:19:11.869Z,1.32
2019-01-29T07:21:42.583Z,1.32
2019-01-29T07:24:12.529Z,0.98
2019-01-29T07:26:42.359Z,0.88
2019-01-29T07:29:12.182Z,0.66
2019-01-29T07:31:41.951Z,0.67
2019-01-29T07:34:11.844Z,0.56
2019-01-29T07:36:41.565Z,0.51
2019-01-29T07:39:11.691Z,0.51
2019-01-29T07:41:41.440Z,0.51
2019-01-29T07:44:11.295Z,0.59
2019-01-29T07:46:41.108Z,0.60
2019-01-29T07:49:11.003Z,0.54
2019-01-29T07:51:40.812Z,0.60
2019-01-29T07:54:10.646Z,0.71
2019-01-29T07:56:40.746Z,0.80
2019-01-29T07:59:10.570Z,0.83
2019-01-29T08:01:40.408Z,0.81
2019-01-29T08:04:10.349Z,0.71
2019-01-29T08:06:40.128Z,0.71
2019-01-29T08:09:09.999Z,0.71
2019-01-29T08:11:39.810Z,0.69
2019-01-29T08:14:09.637Z,0.71
2019-01-29T08:16:39.344Z,0.74
2019-01-29T08:19:09.157Z,0.80
2019-01-29T08:21:39.032Z,1.06
2019-01-29T08:24:08.765Z,1.37
2019-01-29T08:26:38.657Z,1.70
2019-01-29T08:29:08.715Z,1.82
2019-01-29T08:31:38.504Z,1.94
2019-01-29T08:34:08.306Z,2.24
2019-01-29T08:36:38.045Z,2.62
2019-01-29T08:39:08.601Z,2.92
2019-01-29T08:41:38.406Z,3.41
2019-01-29T08:44:09.047Z,3.59
2019-01-29T08:46:39.013Z,3.75
2019-01-29T08:49:08.700Z,3.79
2019-01-29T08:51:38.611Z,4.12
2019-01-29T08:54:08.349Z,4.47
2019-01-29T08:56:38.150Z,4.73
2019-01-29T08:59:07.918Z,4.95
2019-01-29T09:01:37.735Z,5.08
2019-01-29T09:04:07.660Z,4.97
2019-01-29T09:06:37.545Z,4.82
2019-01-29T09:09:09.122Z,4.39
2019-01-29T09:11:39.103Z,4.61
2019-01-29T09:14:08.858Z,4.62
2019-01-29T09:16:38.908Z,4.75
2019-01-29T09:19:08.932Z,4.81
2019-01-29T09:21:39.592Z,4.87
2019-01-29T09:24:09.648Z,4.98
2019-01-29T09:26:39.398Z,4.98
2019-01-29T09:29:17.457Z,4.81
2019-01-29T09:31:41.233Z,4.93
2019-01-29T09:34:11.052Z,4.99
2019-01-29T09:36:40.848Z,5.41
2019-01-29T09:39:13.834Z,5.65
2019-01-29T09:41:43.619Z,5.87
2019-01-29T09:44:13.410Z,6.06
2019-01-29T09:46:43.229Z,6.36
2019-01-29T09:49:13.220Z,6.58
2019-01-29T09:51:42.994Z,6.52
2019-01-29T09:54:14.654Z,6.51
2019-01-29T09:56:44.728Z,6.49
2019-01-29T09:59:14.547Z,6.62
2019-01-29T10:01:44.361Z,6.78
2019-01-29T10:04:14.088Z,7.01
2019-01-29T10:06:43.890Z,7.17
2019-01-29T10:09:13.672Z,7.15
2019-01-29T10:11:43.638Z,6.67
2019-01-29T10:14:14.070Z,7.13
2019-01-29T10:16:43.867Z,7.24
2019-01-29T10:19:13.800Z,7.13
2019-01-29T10:21:43.670Z,7.20
2019-01-29T10:24:13.689Z,7.14
2019-01-29T10:26:44.431Z,7.24
2019-01-29T10:29:14.522Z,7.03
2019-01-29T10:31:44.470Z,7.11
2019-01-29T10:34:16.839Z,7.12
2019-01-29T10:36:46.725Z,6.92
2019-01-29T10:39:16.710Z,6.96
2019-01-29T10:41:46.574Z,6.95
2019-01-29T10:44:16.287Z,6.74
2019-01-29T10:46:46.333Z,6.62
2019-01-29T10:49:16.235Z,6.68
2019-01-29T10:51:46.162Z,6.69
2019-01-29T10:54:15.917Z,6.70
2019-01-29T10:56:47.275Z,6.62
2019-01-29T10:59:17.039Z,6.72
2019-01-29T11:01:46.921Z,6.74
2019-01-29T11:04:16.752Z,6.86
2019-01-29T11:06:46.680Z,6.79
2019-01-29T11:09:25.144Z,6.83
2019-01-29T11:11:47.865Z,6.65
2019-01-29T11:14:17.687Z,6.68
2019-01-29T11:16:47.684Z,6.85
2019-01-29T11:19:17.526Z,6.65
2019-01-29T11:21:47.346Z,6.65
2019-01-29T11:24:17.184Z,6.65
2019-01-29T11:26:46.993Z,6.74
2019-01-29T11:29:16.776Z,6.73
2019-01-29T11:31:46.610Z,6.72
2019-01-29T11:34:16.644Z,6.64
2019-01-29T11:36:47.659Z,6.59
2019-01-29T11:39:17.478Z,6.73
2019-01-29T11:41:47.212Z,6.63
2019-01-29T11:44:16.938Z,6.54
2019-01-29T11:46:46.861Z,6.49
2019-01-29T11:49:16.607Z,6.27
2019-01-29T11:51:46.661Z,6.22
2019-01-29T11:54:16.923Z,6.04
2019-01-29T11:56:47.662Z,5.91
2019-01-29T11:59:17.349Z,5.84
2019-01-29T12:01:47.153Z,5.82
2019-01-29T12:04:16.885Z,5.84
2019-01-29T12:06:46.828Z,5.86
2019-01-29T12:09:16.565Z,5.77
2019-01-29T12:11:46.330Z,5.83
2019-01-29T12:14:15.989Z,5.70
2019-01-29T12:16:45.830Z,5.57
2019-01-29T12:19:15.636Z,5.80
2019-01-29T12:21:45.364Z,6.01
2019-01-29T12:24:15.277Z,5.92
2019-01-29T12:26:45.069Z,5.94
2019-01-29T12:29:14.791Z,5.94
2019-01-29T12:31:44.577Z,5.90
2019-01-29T12:34:14.316Z,5.87
2019-01-29T12:36:44.035Z,5.84
2019-01-29T12:39:13.982Z,5.89
2019-01-29T12:41:43.654Z,5.78
2019-01-29T12:44:13.459Z,5.53
2019-01-29T12:46:44.150Z,5.53
2019-01-29T12:49:13.893Z,5.48
2019-01-29T12:51:45.234Z,5.39
2019-01-29T12:54:15.066Z,5.44
2019-01-29T12:56:44.848Z,5.52
2019-01-29T12:59:15.178Z,5.54
2019-01-29T13:01:44.940Z,5.58
2019-01-29T13:04:14.803Z,5.89
2019-01-29T13:06:44.571Z,5.84
2019-01-29T13:09:14.291Z,6.04
2019-01-29T13:11:44.071Z,6.10
2019-01-29T13:14:13.844Z,6.02
2019-01-29T13:16:44.359Z,6.02
2019-01-29T13:19:14.206Z,6.02
2019-01-29T13:21:44.030Z,5.94
2019-01-29T13:24:13.889Z,5.88
2019-01-29T13:26:43.859Z,5.76
2019-01-29T13:29:13.857Z,5.72
2019-01-29T13:31:44.955Z,5.70
2019-01-29T13:34:14.843Z,5.71
2019-01-29T13:36:47.659Z,5.76
2019-01-29T13:39:17.391Z,5.84
2019-01-29T13:41:47.149Z,5.92
2019-01-29T13:44:16.889Z,6.01
2019-01-29T13:46:46.864Z,6.04
2019-01-29T13:49:16.701Z,6.04
2019-01-29T13:51:47.107Z,6.07
2019-01-29T13:54:16.882Z,6.08
2019-01-29T13:56:48.256Z,6.08
2019-01-29T13:59:18.235Z,6.07
2019-01-29T14:01:48.040Z,6.06
2019-01-29T14:04:17.918Z,6.08
2019-01-29T14:06:47.727Z,6.08
2019-01-29T14:09:17.591Z,6.02
2019-01-29T14:11:47.449Z,5.94
2019-01-29T14:14:19.099Z,5.89
2019-01-29T14:16:50.881Z,5.83
2019-01-29T14:19:20.632Z,5.81
2019-01-29T14:21:50.467Z,5.81
2019-01-29T14:24:20.271Z,5.74
2019-01-29T14:26:50.071Z,5.68
2019-01-29T14:29:19.790Z,5.64
2019-01-29T14:31:49.615Z,5.60
2019-01-29T14:34:21.589Z,5.59
2019-01-29T14:36:51.271Z,5.54
2019-01-29T14:39:24.186Z,5.51
2019-01-29T14:41:54.215Z,5.49
2019-01-29T14:44:24.161Z,5.49
2019-01-29T14:46:53.986Z,5.35
2019-01-29T14:49:23.820Z,5.26
2019-01-29T14:51:53.807Z,5.18
2019-01-29T14:54:23.690Z,5.06
2019-01-29T14:56:56.956Z,5.00
2019-01-29T14:59:25.481Z,4.96
2019-01-29T15:01:55.484Z,4.97
2019-01-29T15:04:25.255Z,4.93
2019-01-29T15:06:55.074Z,4.92
2019-01-29T15:09:25.108Z,4.87
2019-01-29T15:11:54.960Z,4.85
2019-01-29T15:14:24.720Z,4.78
2019-01-29T15:16:56.225Z,4.71
2019-01-29T15:19:26.249Z,4.63
2019-01-29T15:21:56.110Z,4.55
2019-01-29T15:24:26.134Z,4.50
2019-01-29T15:26:56.009Z,4.45
2019-01-29T15:29:26.902Z,4.38
2019-01-29T15:31:56.739Z,4.30
2019-01-29T15:34:26.560Z,4.22
2019-01-29T15:36:56.358Z,4.17
2019-01-29T15:39:26.196Z,4.08
2019-01-29T15:41:55.989Z,3.97
2019-01-29T15:44:25.847Z,3.78
2019-01-29T15:46:56.242Z,3.87
2019-01-29T15:49:26.081Z,3.80
2019-01-29T15:51:56.788Z,3.73
2019-01-29T15:54:26.620Z,3.68
2019-01-29T15:56:56.426Z,3.63
2019-01-29T15:59:26.220Z,3.59
2019-01-29T16:01:55.970Z,3.52
2019-01-29T16:04:25.779Z,3.49
2019-01-29T16:06:55.591Z,3.45
2019-01-29T16:09:25.409Z,3.42
2019-01-29T16:11:55.518Z,3.39
2019-01-29T16:14:25.320Z,3.35
2019-01-29T16:16:55.105Z,3.36
2019-01-29T16:19:25.059Z,3.69
2019-01-29T16:21:54.824Z,3.77
2019-01-29T16:24:24.835Z,3.92
2019-01-29T16:26:54.555Z,3.88
2019-01-29T16:29:24.510Z,3.94
2019-01-29T16:31:54.439Z,4.29
2019-01-29T16:34:24.296Z,4.12
2019-01-29T16:36:54.119Z,3.87
2019-01-29T16:39:23.967Z,3.58
2019-01-29T16:41:53.841Z,3.26
2019-01-29T16:44:23.791Z,3.12
2019-01-29T16:46:55.312Z,2.99
2019-01-29T16:49:25.387Z,2.89
2019-01-29T16:51:56.174Z,2.82
2019-01-29T16:54:25.999Z,2.73
2019-01-29T16:56:55.977Z,2.67
2019-01-29T16:59:25.787Z,2.62
2019-01-29T17:01:55.869Z,2.55
2019-01-29T17:04:25.675Z,2.49
2019-01-29T17:06:55.500Z,2.36
2019-01-29T17:09:25.517Z,2.32
2019-01-29T17:11:55.268Z,2.25
2019-01-29T17:14:25.049Z,2.20
2019-01-29T17:16:56.547Z,2.15
2019-01-29T17:19:26.365Z,3.50
2019-01-29T17:21:56.484Z,3.88
2019-01-29T17:24:27.788Z,3.33
2019-01-29T17:26:57.590Z,2.96
2019-01-29T17:29:27.469Z,2.66
2019-01-29T17:31:58.955Z,2.47
2019-01-29T17:34:28.763Z,2.32
2019-01-29T17:36:58.896Z,2.19
2019-01-29T17:39:28.746Z,2.11
2019-01-29T17:41:58.514Z,2.03
2019-01-29T17:44:28.334Z,1.96
2019-01-29T17:46:59.222Z,1.93
2019-01-29T17:49:29.078Z,1.91
2019-01-29T17:51:58.819Z,1.88
2019-01-29T17:54:28.675Z,1.87
2019-01-29T17:56:58.469Z,1.81
2019-01-29T17:59:28.319Z,1.77
2019-01-29T18:01:58.139Z,1.79
2019-01-29T18:04:28.720Z,2.01
2019-01-29T18:06:59.213Z,2.72
2019-01-29T18:09:29.091Z,2.44
2019-01-29T18:11:59.243Z,2.23
2019-01-29T18:14:29.094Z,2.00
2019-01-29T18:17:00.060Z,1.85
2019-01-29T18:19:29.911Z,1.76
2019-01-29T18:21:59.730Z,1.60
2019-01-29T18:24:29.713Z,1.55
2019-01-29T18:26:59.676Z,1.50
2019-01-29T18:29:30.301Z,1.48
2019-01-29T18:32:00.198Z,1.42
2019-01-29T18:34:30.007Z,1.42
2019-01-29T18:36:59.785Z,1.33
2019-01-29T18:39:29.838Z,1.25
2019-01-29T18:41:59.639Z,1.26
2019-01-29T18:44:29.643Z,1.25
2019-01-29T18:46:59.495Z,1.22
2019-01-29T18:49:29.383Z,1.22
2019-01-29T18:52:00.430Z,1.22
2019-01-29T18:54:31.336Z,1.17
2019-01-29T18:57:01.177Z,1.13
2019-01-29T18:59:32.058Z,2.31
2019-01-29T19:02:01.949Z,2.59
2019-01-29T19:04:31.818Z,2.27
2019-01-29T19:07:02.610Z,2.06
2019-01-29T19:09:32.444Z,1.91
2019-01-29T19:12:02.184Z,1.81
2019-01-29T19:14:32.029Z,1.76
2019-01-29T19:17:01.856Z,1.70
2019-01-29T19:19:31.696Z,1.68
2019-01-29T19:22:01.605Z,1.67
2019-01-29T19:24:31.443Z,1.61
2019-01-29T19:27:01.444Z,1.64
2019-01-29T19:29:31.263Z,1.65
2019-01-29T19:32:01.145Z,1.60
2019-01-29T19:34:30.985Z,1.64
2019-01-29T19:37:03.092Z,1.65
2019-01-29T19:39:32.363Z,1.62
2019-01-29T19:42:02.604Z,1.65
2019-01-29T19:44:32.425Z,1.65
2019-01-29T19:47:03.465Z,1.60
2019-01-29T19:49:34.364Z,1.60
2019-01-29T19:52:04.304Z,1.62
2019-01-29T19:54:34.544Z,1.58
2019-01-29T19:57:04.353Z,1.53
2019-01-29T19:59:36.763Z,1.49
2019-01-29T20:02:06.740Z,1.47
2019-01-29T20:04:36.580Z,2.13
2019-01-29T20:07:07.023Z,2.13
2019-01-29T20:09:36.961Z,3.64
2019-01-29T20:12:09.673Z,3.17
2019-01-29T20:14:38.801Z,2.81
2019-01-29T20:17:11.399Z,2.48
2019-01-29T20:19:41.196Z,2.29
2019-01-29T20:22:11.642Z,2.21
2019-01-29T20:24:41.547Z,2.12
2019-01-29T20:27:11.320Z,2.06
2019-01-29T20:29:41.161Z,2.03
2019-01-29T20:32:11.101Z,2.03
2019-01-29T20:34:40.918Z,1.98
2019-01-29T20:37:10.759Z,1.93
2019-01-29T20:39:40.641Z,1.94
2019-01-29T20:42:10.761Z,1.91
2019-01-29T20:44:40.530Z,1.88
2019-01-29T20:47:10.440Z,1.84
2019-01-29T20:49:43.929Z,1.88
2019-01-29T20:52:13.742Z,1.83
2019-01-29T20:54:43.557Z,1.82
2019-01-29T20:57:13.363Z,1.77
2019-01-29T20:59:43.169Z,1.79
2019-01-29T21:02:13.021Z,1.80
2019-01-29T21:04:42.798Z,1.83
2019-01-29T21:07:12.621Z,1.81
2019-01-29T21:09:42.489Z,1.83
2019-01-29T21:12:12.320Z,1.87
2019-01-29T21:14:42.123Z,1.79
2019-01-29T21:17:12.339Z,1.78
2019-01-29T21:19:43.619Z,1.77
2019-01-29T21:22:13.420Z,1.73
2019-01-29T21:24:43.241Z,1.76
2019-01-29T21:27:13.095Z,1.73
2019-01-29T21:29:42.881Z,1.72
2019-01-29T21:32:12.698Z,1.64
2019-01-29T21:34:42.481Z,1.66
2019-01-29T21:37:12.501Z,1.62
2019-01-29T21:39:42.359Z,1.59
2019-01-29T21:42:12.339Z,1.57
2019-01-29T21:44:42.159Z,1.64
2019-01-29T21:47:12.001Z,1.57
2019-01-29T21:49:41.850Z,1.58
2019-01-29T21:52:11.701Z,1.57
2019-01-29T21:54:41.525Z,1.55
2019-01-29T21:57:11.362Z,1.56
2019-01-29T21:59:41.160Z,1.56
2019-01-29T22:02:10.999Z,1.57
2019-01-29T22:04:40.762Z,1.48
2019-01-29T22:07:10.579Z,1.48
2019-01-29T22:09:41.346Z,1.53
2019-01-29T22:12:11.043Z,1.56
2019-01-29T22:14:40.860Z,1.49
2019-01-29T22:17:10.684Z,1.49
2019-01-29T22:19:40.341Z,1.56
2019-01-29T22:22:10.141Z,1.56
2019-01-29T22:24:40.021Z,1.50
2019-01-29T22:27:09.824Z,1.49
2019-01-29T22:29:39.621Z,1.54
2019-01-29T22:32:09.441Z,1.54
2019-01-29T22:34:39.201Z,1.52
2019-01-29T22:37:09.019Z,1.52
2019-01-29T22:39:38.800Z,1.56
2019-01-29T22:42:08.621Z,1.53
2019-01-29T22:44:38.421Z,1.55
2019-01-29T22:47:08.286Z,1.56
2019-01-29T22:49:38.757Z,1.56
2019-01-29T22:52:08.481Z,1.01
2019-01-29T22:54:38.580Z,1.62
2019-01-29T22:57:08.401Z,1.62
2019-01-29T22:59:38.213Z,1.58
2019-01-29T23:02:08.181Z,1.61
2019-01-29T23:04:37.959Z,1.61
2019-01-29T23:07:07.802Z,1.59
2019-01-29T23:09:37.639Z,1.60
2019-01-29T23:12:07.422Z,1.56
2019-01-29T23:14:37.210Z,1.58
2019-01-29T23:17:07.061Z,1.58
2019-01-29T23:19:36.843Z,1.58
2019-01-29T23:22:06.743Z,1.59
2019-01-29T23:24:36.484Z,1.59
2019-01-29T23:27:06.299Z,1.59
2019-01-29T23:29:43.250Z,1.59
2019-01-29T23:32:07.422Z,1.60
2019-01-29T23:34:37.203Z,1.55
2019-01-29T23:37:06.982Z,1.66
2019-01-29T23:39:36.831Z,1.48
2019-01-29T23:42:06.627Z,1.59
2019-01-29T23:44:36.872Z,1.59
2019-01-29T23:47:06.950Z,1.60
2019-01-29T23:49:36.666Z,1.42
2019-01-29T23:52:06.648Z,1.38
2019-01-29T23:54:36.468Z,1.40
2019-01-29T23:57:06.288Z,1.41
2019-01-29T23:59:36.089Z,1.40
